createdAt,value
2018-06-12T00:00:51.029Z,16.68
2018-06-12T00:03:20.034Z,16.71
2018-06-12T00:05:49.427Z,16.53
2018-06-12T00:08:18.762Z,16.64
2018-06-12T00:10:47.818Z,16.63
2018-06-12T00:13:16.933Z,16.67
2018-06-12T00:15:45.956Z,16.68
2018-06-12T00:18:14.908Z,16.69
2018-06-12T00:20:43.987Z,16.79
2018-06-12T00:23:13.255Z,16.71
2018-06-12T00:25:42.239Z,16.68
2018-06-12T00:28:11.488Z,16.78
2018-06-12T00:30:40.609Z,16.76
2018-06-12T00:33:09.949Z,16.84
2018-06-12T00:35:39.327Z,16.65
2018-06-12T00:38:08.872Z,16.17
2018-06-12T00:40:38.012Z,16.36
2018-06-12T00:43:07.501Z,16.54
2018-06-12T00:45:36.458Z,16.42
2018-06-12T00:48:05.504Z,16.56
2018-06-12T00:50:34.483Z,16.49
2018-06-12T00:53:03.851Z,16.48
2018-06-12T00:55:33.204Z,16.49
2018-06-12T00:58:02.638Z,16.48
2018-06-12T01:00:31.894Z,16.47
2018-06-12T01:03:01.264Z,16.59
2018-06-12T01:05:30.644Z,16.43
2018-06-12T01:07:59.980Z,16.30
2018-06-12T01:10:30.054Z,16.16
2018-06-12T01:12:59.172Z,16.11
2018-06-12T01:15:28.263Z,16.12
2018-06-12T01:17:57.193Z,16.20
2018-06-12T01:20:26.184Z,16.24
2018-06-12T01:22:55.221Z,16.30
2018-06-12T01:25:24.203Z,16.29
2018-06-12T01:27:53.648Z,16.26
2018-06-12T01:30:23.146Z,16.14
2018-06-12T01:32:52.111Z,16.21
2018-06-12T01:35:21.217Z,16.22
2018-06-12T01:37:50.149Z,16.23
2018-06-12T01:40:19.179Z,16.15
2018-06-12T01:42:48.237Z,16.14
2018-06-12T01:45:17.276Z,16.11
2018-06-12T01:47:46.287Z,15.99
2018-06-12T01:50:15.359Z,15.96
2018-06-12T01:52:44.449Z,15.93
2018-06-12T01:55:13.654Z,15.74
2018-06-12T01:57:42.619Z,15.63
2018-06-12T02:00:11.930Z,15.85
2018-06-12T02:02:41.329Z,15.78
2018-06-12T02:05:10.333Z,15.87
2018-06-12T02:07:39.413Z,15.99
2018-06-12T02:10:08.419Z,15.96
2018-06-12T02:12:37.551Z,15.88
2018-06-12T02:15:06.875Z,15.81
2018-06-12T02:17:36.278Z,15.93
2018-06-12T02:20:05.682Z,15.86
2018-06-12T02:22:34.721Z,16.01
2018-06-12T02:25:03.680Z,15.95
2018-06-12T02:27:32.753Z,16.11
2018-06-12T02:30:02.124Z,16.04
2018-06-12T02:32:31.057Z,16.03
2018-06-12T02:35:00.120Z,15.96
2018-06-12T02:37:29.083Z,15.78
2018-06-12T02:39:58.848Z,15.71
2018-06-12T02:42:27.958Z,15.73
2018-06-12T02:44:57.061Z,15.77
2018-06-12T02:47:26.027Z,15.75
2018-06-12T02:49:54.985Z,15.80
2018-06-12T02:52:24.005Z,15.80
2018-06-12T02:54:53.243Z,15.86
2018-06-12T02:57:22.325Z,15.80
2018-06-12T02:59:51.813Z,15.76
2018-06-12T03:02:21.266Z,15.78
2018-06-12T03:04:50.382Z,15.72
2018-06-12T03:07:19.632Z,15.55
2018-06-12T03:09:49.036Z,15.61
2018-06-12T03:12:18.400Z,15.61
2018-06-12T03:14:47.527Z,15.58
2018-06-12T03:17:16.556Z,15.70
2018-06-12T03:19:45.911Z,15.68
2018-06-12T03:22:14.880Z,15.69
2018-06-12T03:24:43.933Z,15.62
2018-06-12T03:27:12.888Z,15.62
2018-06-12T03:29:41.962Z,15.80
2018-06-12T03:32:11.020Z,15.80
2018-06-12T03:34:40.320Z,15.71
2018-06-12T03:37:09.693Z,15.71
2018-06-12T03:39:39.006Z,15.66
2018-06-12T03:42:08.404Z,15.59
2018-06-12T03:44:37.673Z,15.74
2018-06-12T03:47:06.621Z,15.72
2018-06-12T03:49:42.202Z,15.78
2018-06-12T03:52:11.221Z,15.84
2018-06-12T03:54:40.642Z,15.84
2018-06-12T03:57:09.845Z,15.93
2018-06-12T03:59:39.359Z,15.96
2018-06-12T04:02:08.645Z,15.98
2018-06-12T04:04:37.646Z,15.99
2018-06-12T04:07:06.666Z,15.96
2018-06-12T04:09:35.640Z,16.13
2018-06-12T04:12:04.670Z,16.16
2018-06-12T04:14:33.664Z,16.17
2018-06-12T04:17:03.193Z,16.07
2018-06-12T04:19:32.155Z,15.90
2018-06-12T04:22:01.172Z,15.91
2018-06-12T04:24:30.619Z,15.92
2018-06-12T04:27:00.032Z,16.06
2018-06-12T04:29:29.325Z,16.15
2018-06-12T04:31:58.264Z,16.23
2018-06-12T04:34:27.328Z,16.26
2018-06-12T04:36:56.345Z,16.33
2018-06-12T04:39:25.356Z,16.46
2018-06-12T04:41:54.386Z,16.51
2018-06-12T04:44:23.568Z,16.62
2018-06-12T04:46:52.545Z,16.72
2018-06-12T04:49:21.664Z,16.82
2018-06-12T04:51:50.679Z,16.84
2018-06-12T04:54:19.749Z,16.95
2018-06-12T04:56:48.801Z,17.03
2018-06-12T04:59:17.997Z,17.26
2018-06-12T05:01:47.278Z,17.37
2018-06-12T05:04:16.669Z,17.53
2018-06-12T05:06:47.692Z,17.40
2018-06-12T05:09:16.787Z,17.10
2018-06-12T05:11:46.399Z,16.87
2018-06-12T05:14:16.130Z,16.46
2018-06-12T05:16:45.252Z,16.47
2018-06-12T05:19:14.362Z,16.64
2018-06-12T05:21:44.289Z,16.66
2018-06-12T05:24:13.590Z,16.86
2018-06-12T05:26:46.638Z,16.95
2018-06-12T05:29:15.768Z,17.18
2018-06-12T05:31:44.931Z,17.60
2018-06-12T05:34:14.810Z,17.73
2018-06-12T05:36:43.845Z,18.03
2018-06-12T05:39:12.897Z,17.91
2018-06-12T05:41:48.221Z,18.45
2018-06-12T05:44:17.764Z,18.15
2018-06-12T05:46:48.062Z,18.13
2018-06-12T05:49:22.628Z,18.33
2018-06-12T05:51:51.968Z,18.36
2018-06-12T05:54:21.485Z,18.54
2018-06-12T05:56:50.909Z,18.29
2018-06-12T05:59:20.180Z,18.23
2018-06-12T06:01:49.531Z,18.22
2018-06-12T06:04:18.934Z,17.64
2018-06-12T06:06:48.379Z,18.03
2018-06-12T06:09:17.637Z,18.21
2018-06-12T06:11:46.939Z,18.93
2018-06-12T06:14:15.954Z,19.05
2018-06-12T06:16:45.294Z,19.06
2018-06-12T06:19:14.767Z,18.60
2018-06-12T06:21:46.198Z,18.84
2018-06-12T06:24:15.513Z,19.27
2018-06-12T06:26:46.553Z,19.64
2018-06-12T06:29:16.009Z,19.71
2018-06-12T06:31:46.578Z,20.03
2018-06-12T06:34:15.910Z,20.64
2018-06-12T06:36:45.350Z,20.44
2018-06-12T06:39:14.675Z,19.84
2018-06-12T06:41:44.854Z,19.94
2018-06-12T06:44:17.871Z,20.56
2018-06-12T06:46:47.743Z,20.92
2018-06-12T06:49:18.408Z,20.95
2018-06-12T06:51:48.858Z,20.76
2018-06-12T06:54:24.995Z,21.41
2018-06-12T06:56:54.588Z,21.29
2018-06-12T06:59:24.190Z,20.85
2018-06-12T07:01:55.579Z,20.90
2018-06-12T07:04:25.502Z,21.68
2018-06-12T07:06:57.091Z,21.80
2018-06-12T07:09:26.486Z,20.88
2018-06-12T07:11:55.732Z,21.10
2018-06-12T07:14:25.187Z,21.37
2018-06-12T07:16:54.721Z,21.91
2018-06-12T07:19:23.700Z,22.19
2018-06-12T07:21:55.818Z,22.13
2018-06-12T07:24:25.568Z,22.35
2018-06-12T07:26:54.803Z,22.40
2018-06-12T07:29:24.361Z,22.38
2018-06-12T07:31:53.832Z,22.17
2018-06-12T07:34:24.326Z,22.35
2018-06-12T07:36:54.494Z,22.48
2018-06-12T07:39:24.294Z,22.32
2018-06-12T07:41:55.691Z,22.66
2018-06-12T07:44:25.230Z,22.86
2018-06-12T07:46:54.923Z,22.23
2018-06-12T07:49:25.482Z,21.83
2018-06-12T07:51:55.159Z,21.93
2018-06-12T07:54:25.858Z,22.51
2018-06-12T07:56:55.049Z,22.85
2018-06-12T07:59:24.380Z,22.58
2018-06-12T08:01:54.544Z,22.63
2018-06-12T08:04:24.413Z,22.93
2018-06-12T08:06:53.767Z,22.92
2018-06-12T08:09:23.744Z,22.63
2018-06-12T08:11:53.290Z,23.11
2018-06-12T08:14:23.225Z,23.13
2018-06-12T08:16:52.209Z,23.49
2018-06-12T08:19:21.457Z,23.90
2018-06-12T08:21:52.591Z,24.31
2018-06-12T08:24:22.141Z,24.20
2018-06-12T08:26:51.124Z,23.96
2018-06-12T08:29:22.460Z,23.79
2018-06-12T08:31:52.326Z,24.17
2018-06-12T08:34:21.639Z,24.00
2018-06-12T08:36:50.741Z,23.74
2018-06-12T08:39:19.775Z,23.95
2018-06-12T08:41:48.908Z,24.13
2018-06-12T08:44:17.995Z,24.54
2018-06-12T08:46:49.557Z,24.83
2018-06-12T08:49:19.510Z,24.86
2018-06-12T08:51:48.601Z,25.11
2018-06-12T08:54:19.291Z,25.46
2018-06-12T08:56:48.509Z,24.67
2018-06-12T08:59:17.587Z,24.99
2018-06-12T09:01:47.790Z,25.42
2018-06-12T09:04:16.822Z,25.46
2018-06-12T09:06:45.844Z,24.98
2018-06-12T09:09:15.355Z,25.23
2018-06-12T09:11:44.671Z,25.22
2018-06-12T09:14:13.720Z,25.37
2018-06-12T09:16:44.269Z,25.86
2018-06-12T09:19:13.325Z,25.25
2018-06-12T09:21:42.915Z,25.84
2018-06-12T09:24:12.024Z,26.18
2018-06-12T09:26:41.117Z,26.08
2018-06-12T09:29:11.580Z,25.54
2018-06-12T09:31:40.811Z,26.16
2018-06-12T09:34:13.413Z,25.80
2018-06-12T09:36:44.544Z,26.41
2018-06-12T09:39:14.666Z,26.75
2018-06-12T09:41:44.391Z,26.85
2018-06-12T09:44:14.736Z,26.84
2018-06-12T09:46:45.488Z,26.93
2018-06-12T09:49:14.771Z,26.44
2018-06-12T09:51:44.261Z,26.58
2018-06-12T09:54:13.639Z,26.61
2018-06-12T09:56:44.799Z,26.52
2018-06-12T09:59:14.219Z,26.94
2018-06-12T10:01:44.343Z,26.72
2018-06-12T10:04:15.592Z,26.34
2018-06-12T10:06:45.009Z,26.82
2018-06-12T10:09:14.369Z,26.93
2018-06-12T10:11:44.397Z,26.88
2018-06-12T10:14:15.444Z,26.99
2018-06-12T10:16:45.675Z,26.70
2018-06-12T10:19:14.919Z,26.81
2018-06-12T10:21:45.075Z,27.15
2018-06-12T10:24:15.239Z,26.72
2018-06-12T10:26:44.604Z,26.75
2018-06-12T10:29:15.386Z,27.04
2018-06-12T10:31:45.459Z,27.04
2018-06-12T10:34:14.887Z,27.34
2018-06-12T10:36:44.967Z,27.40
2018-06-12T10:39:15.285Z,27.81
2018-06-12T10:41:46.017Z,27.93
2018-06-12T10:44:16.046Z,27.28
2018-06-12T10:46:45.327Z,27.43
2018-06-12T10:49:14.644Z,27.24
2018-06-12T10:51:44.676Z,27.32
2018-06-12T10:54:16.134Z,27.43
2018-06-12T10:56:45.454Z,27.62
2018-06-12T10:59:15.441Z,27.91
2018-06-12T11:01:45.140Z,27.38
2018-06-12T11:04:14.651Z,27.66
2018-06-12T11:06:43.996Z,27.82
2018-06-12T11:09:13.304Z,27.98
2018-06-12T11:11:42.515Z,27.69
2018-06-12T11:14:11.935Z,27.75
2018-06-12T11:16:41.909Z,27.67
2018-06-12T11:19:11.384Z,27.26
2018-06-12T11:21:40.750Z,27.33
2018-06-12T11:24:10.048Z,27.42
2018-06-12T11:26:39.579Z,27.67
2018-06-12T11:29:09.238Z,27.39
2018-06-12T11:31:39.182Z,27.33
2018-06-12T11:34:08.374Z,27.30
2018-06-12T11:36:39.057Z,27.59
2018-06-12T11:39:08.926Z,27.46
2018-06-12T11:41:38.289Z,27.32
2018-06-12T11:44:08.474Z,27.06
2018-06-12T11:46:40.573Z,27.09
2018-06-12T11:49:10.099Z,27.27
2018-06-12T11:51:39.576Z,27.36
2018-06-12T11:54:08.998Z,27.01
2018-06-12T11:56:38.307Z,26.48
2018-06-12T11:59:09.003Z,26.53
2018-06-12T12:01:38.421Z,26.14
2018-06-12T12:04:07.987Z,26.22
2018-06-12T12:06:37.092Z,26.23
2018-06-12T12:09:09.873Z,26.60
2018-06-12T12:11:39.347Z,26.36
2018-06-12T12:14:10.530Z,26.35
2018-06-12T12:16:41.602Z,25.85
2018-06-12T12:19:10.993Z,26.03
2018-06-12T12:21:41.548Z,25.90
2018-06-12T12:24:11.274Z,25.94
2018-06-12T12:26:46.559Z,26.08
2018-06-12T12:29:16.003Z,26.21
2018-06-12T12:31:45.328Z,26.74
2018-06-12T12:34:15.613Z,26.69
2018-06-12T12:36:47.963Z,26.86
2018-06-12T12:39:17.362Z,26.87
2018-06-12T12:41:46.886Z,27.28
2018-06-12T12:44:16.342Z,27.14
2018-06-12T12:46:46.443Z,27.23
2018-06-12T12:49:16.592Z,26.78
2018-06-12T12:51:46.075Z,26.23
2018-06-12T12:54:15.166Z,26.14
2018-06-12T12:56:44.223Z,25.91
2018-06-12T12:59:13.529Z,25.80
2018-06-12T13:01:43.015Z,25.60
2018-06-12T13:04:13.073Z,25.66
2018-06-12T13:06:44.107Z,25.69
2018-06-12T13:09:13.738Z,25.32
2018-06-12T13:11:46.190Z,24.62
2018-06-12T13:14:33.368Z,24.45
2018-06-12T13:17:02.443Z,24.35
2018-06-12T13:19:32.716Z,24.58
2018-06-12T13:22:04.125Z,24.58
2018-06-12T13:24:33.603Z,24.40
2018-06-12T13:27:03.225Z,23.96
2018-06-12T13:29:33.547Z,24.18
2018-06-12T13:32:03.488Z,23.80
2018-06-12T13:34:32.695Z,23.90
2018-06-12T13:37:02.056Z,23.91
2018-06-12T13:39:31.613Z,23.81
2018-06-12T13:42:01.719Z,23.79
2018-06-12T13:44:31.190Z,23.61
2018-06-12T13:47:02.770Z,23.43
2018-06-12T13:49:33.130Z,23.13
2018-06-12T13:52:02.718Z,22.85
2018-06-12T13:54:32.068Z,22.84
2018-06-12T13:57:04.248Z,22.58
2018-06-12T13:59:38.887Z,22.57
2018-06-12T14:02:08.592Z,22.64
2018-06-12T14:04:39.050Z,22.41
2018-06-12T14:07:12.924Z,22.28
2018-06-12T14:09:42.362Z,22.25
2018-06-12T14:12:11.817Z,22.01
2018-06-12T14:14:41.196Z,21.87
2018-06-12T14:17:11.785Z,21.95
2018-06-12T14:19:45.147Z,21.90
2018-06-12T14:22:16.011Z,21.70
2018-06-12T14:24:46.120Z,21.23
2018-06-12T14:27:15.468Z,21.43
2018-06-12T14:29:46.053Z,21.59
2018-06-12T14:32:16.682Z,21.46
2018-06-12T14:34:46.060Z,21.29
2018-06-12T14:37:15.555Z,21.35
2018-06-12T14:39:45.166Z,21.17
2018-06-12T14:42:16.579Z,21.18
2018-06-12T14:44:46.900Z,21.05
2018-06-12T14:47:16.047Z,21.09
2018-06-12T14:49:45.556Z,21.24
2018-06-12T14:52:15.346Z,21.37
2018-06-12T14:54:44.643Z,21.35
2018-06-12T14:57:13.994Z,21.26
2018-06-12T14:59:43.919Z,21.33
2018-06-12T15:02:14.694Z,21.24
2018-06-12T15:04:44.286Z,21.25
2018-06-12T15:07:15.128Z,21.18
2018-06-12T15:09:45.017Z,21.12
2018-06-12T15:12:14.617Z,21.34
2018-06-12T15:14:44.143Z,21.52
2018-06-12T15:17:14.927Z,21.52
2018-06-12T15:19:47.515Z,21.53
2018-06-12T15:22:18.999Z,21.47
2018-06-12T15:24:51.075Z,21.31
2018-06-12T15:27:21.449Z,21.11
2018-06-12T15:29:51.710Z,20.90
2018-06-12T15:32:20.889Z,20.86
2018-06-12T15:34:50.261Z,20.69
2018-06-12T15:37:20.728Z,20.60
2018-06-12T15:39:50.264Z,20.78
2018-06-12T15:42:20.880Z,20.64
2018-06-12T15:44:51.119Z,20.44
2018-06-12T15:47:22.749Z,20.51
2018-06-12T15:49:53.112Z,20.30
2018-06-12T15:52:25.657Z,19.86
2018-06-12T15:54:57.439Z,19.84
2018-06-12T15:57:28.514Z,19.70
2018-06-12T15:59:59.153Z,19.46
2018-06-12T16:02:29.451Z,19.47
2018-06-12T16:05:00.230Z,19.56
2018-06-12T16:07:30.268Z,19.44
2018-06-12T16:10:04.445Z,19.57
2018-06-12T16:12:36.047Z,19.51
2018-06-12T16:15:08.839Z,19.13
2018-06-12T16:17:38.582Z,19.29
2018-06-12T16:20:08.782Z,19.20
2018-06-12T16:22:39.905Z,19.26
2018-06-12T16:25:10.397Z,19.21
2018-06-12T16:27:40.597Z,19.27
2018-06-12T16:30:10.111Z,19.31
2018-06-12T16:32:42.650Z,19.46
2018-06-12T16:35:13.392Z,19.46
2018-06-12T16:37:45.892Z,19.51
2018-06-12T16:40:17.216Z,19.61
2018-06-12T16:42:49.169Z,19.94
2018-06-12T16:45:19.492Z,20.06
2018-06-12T16:47:51.174Z,19.71
2018-06-12T16:50:20.828Z,19.48
2018-06-12T16:52:51.800Z,19.52
2018-06-12T16:55:23.620Z,19.73
2018-06-12T16:57:53.318Z,19.71
2018-06-12T17:00:25.858Z,19.57
2018-06-12T17:02:56.858Z,19.57
2018-06-12T17:05:27.149Z,19.85
2018-06-12T17:07:56.706Z,19.92
2018-06-12T17:10:26.150Z,19.89
2018-06-12T17:12:55.677Z,19.77
2018-06-12T17:15:25.173Z,19.78
2018-06-12T17:17:54.816Z,19.78
2018-06-12T17:20:24.444Z,19.80
2018-06-12T17:22:53.888Z,19.71
2018-06-12T17:25:23.245Z,19.67
2018-06-12T17:27:52.757Z,19.70
2018-06-12T17:30:24.340Z,19.58
2018-06-12T17:32:56.446Z,19.64
2018-06-12T17:35:26.352Z,19.65
2018-06-12T17:37:56.039Z,19.56
2018-06-12T17:40:25.953Z,19.59
2018-06-12T17:42:55.459Z,19.63
2018-06-12T17:45:25.741Z,19.59
2018-06-12T17:47:55.070Z,19.52
2018-06-12T17:50:24.603Z,19.61
2018-06-12T17:52:55.019Z,19.53
2018-06-12T17:55:24.790Z,19.47
2018-06-12T17:57:54.167Z,19.44
2018-06-12T18:00:24.602Z,19.38
2018-06-12T18:02:55.507Z,19.32
2018-06-12T18:05:26.425Z,19.41
2018-06-12T18:07:59.506Z,19.43
2018-06-12T18:10:31.223Z,19.34
2018-06-12T18:13:00.515Z,19.29
2018-06-12T18:15:31.415Z,19.30
2018-06-12T18:18:01.881Z,19.31
2018-06-12T18:20:32.709Z,19.17
2018-06-12T18:23:02.443Z,19.12
2018-06-12T18:25:32.721Z,19.09
2018-06-12T18:28:06.459Z,19.05
2018-06-12T18:30:38.119Z,19.03
2018-06-12T18:33:08.375Z,19.03
2018-06-12T18:35:39.882Z,18.96
2018-06-12T18:38:11.714Z,18.80
2018-06-12T18:40:42.922Z,18.70
2018-06-12T18:43:12.021Z,18.63
2018-06-12T18:45:41.417Z,18.77
2018-06-12T18:48:11.244Z,18.82
2018-06-12T18:50:41.475Z,18.80
2018-06-12T18:53:11.380Z,18.70
2018-06-12T18:55:41.409Z,18.70
2018-06-12T18:58:14.487Z,18.42
2018-06-12T19:00:45.840Z,18.24
2018-06-12T19:03:16.335Z,18.06
2018-06-12T19:05:46.666Z,18.06
2018-06-12T19:08:16.988Z,18.08
2018-06-12T19:10:47.146Z,18.13
2018-06-12T19:13:16.951Z,18.14
2018-06-12T19:15:46.967Z,18.15
2018-06-12T19:18:19.642Z,18.10
2018-06-12T19:20:49.432Z,18.14
2018-06-12T19:23:20.740Z,18.31
2018-06-12T19:25:52.735Z,18.29
2018-06-12T19:28:22.617Z,18.13
2018-06-12T19:30:54.164Z,18.04
2018-06-12T19:33:23.839Z,18.06
2018-06-12T19:35:54.182Z,18.12
2018-06-12T19:38:24.869Z,18.13
2018-06-12T19:40:56.060Z,17.97
2018-06-12T19:43:27.650Z,17.84
2018-06-12T19:45:59.162Z,17.89
2018-06-12T19:48:28.731Z,18.02
2018-06-12T19:50:59.260Z,17.96
2018-06-12T19:53:29.610Z,17.90
2018-06-12T19:55:59.155Z,17.80
2018-06-12T19:58:28.809Z,17.88
2018-06-12T20:00:59.122Z,17.78
2018-06-12T20:03:29.237Z,17.88
2018-06-12T20:05:58.752Z,17.83
2018-06-12T20:08:30.523Z,17.76
2018-06-12T20:11:00.986Z,17.71
2018-06-12T20:13:30.690Z,17.61
2018-06-12T20:16:00.407Z,17.73
2018-06-12T20:18:30.006Z,17.79
2018-06-12T20:20:59.448Z,17.68
2018-06-12T20:23:29.226Z,17.68
2018-06-12T20:25:58.691Z,17.70
2018-06-12T20:28:29.545Z,17.64
2018-06-12T20:31:01.085Z,17.75
2018-06-12T20:33:30.864Z,17.58
2018-06-12T20:36:00.970Z,17.36
2018-06-12T20:38:30.396Z,17.26
2018-06-12T20:40:59.886Z,17.46
2018-06-12T20:43:30.568Z,17.48
2018-06-12T20:46:00.682Z,17.58
2018-06-12T20:48:30.578Z,17.51
2018-06-12T20:51:00.891Z,17.56
2018-06-12T20:53:32.537Z,17.59
2018-06-12T20:56:01.950Z,17.60
2018-06-12T20:58:31.380Z,17.54
2018-06-12T21:01:00.799Z,17.48
2018-06-12T21:03:30.233Z,17.60
2018-06-12T21:05:59.641Z,17.53
2018-06-12T21:08:29.007Z,17.60
2018-06-12T21:10:59.761Z,17.59
2018-06-12T21:13:29.578Z,17.53
2018-06-12T21:16:00.078Z,17.49
2018-06-12T21:18:29.517Z,17.54
2018-06-12T21:20:59.988Z,17.52
2018-06-12T21:23:30.670Z,17.57
2018-06-12T21:26:02.147Z,17.59
2018-06-12T21:28:32.225Z,17.60
2018-06-12T21:31:01.581Z,17.58
2018-06-12T21:33:32.649Z,17.56
2018-06-12T21:36:02.291Z,17.57
2018-06-12T21:38:31.747Z,17.61
2018-06-12T21:41:02.924Z,17.63
2018-06-12T21:43:32.144Z,17.57
2018-06-12T21:46:01.411Z,17.53
2018-06-12T21:48:30.714Z,17.50
2018-06-12T21:51:00.106Z,17.55
2018-06-12T21:53:29.331Z,17.44
2018-06-12T21:55:59.201Z,17.48
2018-06-12T21:58:28.551Z,17.39
2018-06-12T22:00:58.072Z,17.45
2018-06-12T22:03:27.416Z,17.41
2018-06-12T22:05:57.666Z,17.47
2018-06-12T22:08:27.998Z,17.31
2018-06-12T22:10:57.238Z,17.42
2018-06-12T22:13:26.740Z,17.41
2018-06-12T22:15:56.619Z,17.51
2018-06-12T22:18:26.215Z,17.49
2018-06-12T22:20:55.549Z,17.58
2018-06-12T22:23:25.234Z,17.58
2018-06-12T22:25:54.273Z,17.58
2018-06-12T22:28:23.432Z,17.57
2018-06-12T22:30:53.245Z,17.61
2018-06-12T22:33:23.656Z,17.59
2018-06-12T22:35:53.041Z,17.56
2018-06-12T22:38:22.703Z,17.58
2018-06-12T22:40:51.957Z,17.51
2018-06-12T22:43:20.929Z,17.44
2018-06-12T22:45:49.939Z,17.42
2018-06-12T22:48:19.003Z,17.43
2018-06-12T22:50:48.946Z,17.48
2018-06-12T22:53:20.863Z,17.46
2018-06-12T22:55:51.419Z,17.35
2018-06-12T22:58:20.758Z,17.27
2018-06-12T23:00:50.156Z,17.16
2018-06-12T23:03:19.674Z,17.11
2018-06-12T23:05:49.336Z,17.08
2018-06-12T23:08:19.599Z,16.99
2018-06-12T23:10:48.660Z,17.03
2018-06-12T23:13:18.040Z,17.05
2018-06-12T23:15:47.177Z,17.08
2018-06-12T23:18:17.065Z,17.18
2018-06-12T23:20:57.687Z,17.20
2018-06-12T23:23:26.715Z,17.23
2018-06-12T23:25:55.724Z,17.09
2018-06-12T23:28:27.748Z,17.11
2018-06-12T23:30:56.745Z,17.14
2018-06-12T23:33:26.921Z,17.20
2018-06-12T23:35:56.437Z,17.20
2018-06-12T23:38:25.838Z,17.22
2018-06-12T23:40:55.946Z,17.30
2018-06-12T23:43:25.909Z,17.28
2018-06-12T23:45:57.160Z,17.30
2018-06-12T23:48:26.545Z,17.36
2018-06-12T23:50:55.920Z,17.33
2018-06-12T23:53:26.275Z,17.37
2018-06-12T23:55:55.520Z,17.36
2018-06-12T23:58:30.244Z,17.35
